Terminal Aerodrome Forecast
Issued by NWS

Home | Current Version | Previous Version | Text Only | Print | Product List | Glossary On
Versions: 1 2 3 4 5 6 7 8 9 10 11 12 13 14 15 16 17 18 19 20 21
938
FTUS46 KMFR 192345
TAFLMT
TAF
KLMT 192345Z 2000/2024 VRB05KT P6SM BKN200
     FM200600 17009KT P6SM BKN060 OVC100
     FM201000 17010KT P6SM -RA SCT025 OVC050 WS020/25040KT
     FM201200 18012KT P6SM -RA BKN025 OVC050=

USA.gov is the U.S. government's official web portal to all federal, state and local government web resources and services.